createdAt,value
2023-03-17T00:00:21.995Z,100131.88
2023-03-17T00:03:25.622Z,100135.25
2023-03-17T00:05:54.688Z,100131.22
2023-03-17T00:08:28.575Z,100130.84
2023-03-17T00:10:56.207Z,100139.50
2023-03-17T00:13:23.945Z,100132.03
2023-03-17T00:16:00.958Z,100137.06
2023-03-17T00:18:31.483Z,100143.19
2023-03-17T00:20:58.759Z,100141.50
2023-03-17T00:23:26.476Z,100136.53
2023-03-17T00:25:54.174Z,100134.63
2023-03-17T00:28:27.193Z,100135.06
2023-03-17T00:30:59.074Z,100135.78
2023-03-17T00:33:32.916Z,100135.78
2023-03-17T00:36:01.216Z,100139.38
2023-03-17T00:38:29.580Z,100139.66
2023-03-17T00:40:58.672Z,100138.97
2023-03-17T00:43:26.184Z,100146.19
2023-03-17T00:45:53.267Z,100132.47
2023-03-17T00:48:21.993Z,100138.03
2023-03-17T00:50:50.944Z,100144.41
2023-03-17T00:53:21.580Z,100140.81
2023-03-17T00:55:49.897Z,100129.75
2023-03-17T00:58:33.946Z,100134.47
2023-03-17T01:01:01.527Z,100130.75
2023-03-17T01:03:29.057Z,100130.66
2023-03-17T01:05:57.783Z,100134.28
2023-03-17T01:08:25.986Z,100125.66
2023-03-17T01:10:53.135Z,100130.41
2023-03-17T01:13:20.352Z,100137.06
2023-03-17T01:15:50.502Z,100138.72
2023-03-17T01:18:22.728Z,100143.00
2023-03-17T01:20:50.856Z,100136.09
2023-03-17T01:23:18.120Z,100140.97
2023-03-17T01:25:45.514Z,100140.41
2023-03-17T01:28:18.640Z,100135.72
2023-03-17T01:30:47.059Z,100135.84
2023-03-17T01:33:14.838Z,100144.56
2023-03-17T01:35:45.592Z,100142.91
2023-03-17T01:38:14.864Z,100137.94
2023-03-17T01:40:51.929Z,100138.22
2023-03-17T01:43:27.696Z,100132.13
2023-03-17T01:46:29.970Z,100128.25
2023-03-17T01:49:38.118Z,100119.97
2023-03-17T01:52:07.557Z,100116.13
2023-03-17T01:54:45.061Z,100129.53
2023-03-17T01:57:38.029Z,100130.22
2023-03-17T02:00:17.888Z,100128.84
2023-03-17T02:02:52.349Z,100126.66
2023-03-17T02:05:29.708Z,100122.50
2023-03-17T02:07:57.082Z,100125.25
2023-03-17T02:10:30.281Z,100112.53
2023-03-17T02:13:03.510Z,100125.69
2023-03-17T02:15:40.341Z,100127.63
2023-03-17T02:18:08.875Z,100118.34
2023-03-17T02:20:37.420Z,100114.34
2023-03-17T02:23:07.138Z,100115.31
2023-03-17T02:25:36.623Z,100108.66
2023-03-17T02:28:18.992Z,100114.50
2023-03-17T02:30:46.233Z,100115.03
2023-03-17T02:33:15.245Z,100111.16
2023-03-17T02:35:43.084Z,100116.81
2023-03-17T02:38:10.753Z,100119.44
2023-03-17T02:40:38.304Z,100111.72
2023-03-17T02:43:05.683Z,100110.31
2023-03-17T02:45:32.912Z,100107.25
2023-03-17T02:48:00.980Z,100111.81
2023-03-17T02:50:29.456Z,100105.88
2023-03-17T02:52:56.929Z,100103.66
2023-03-17T02:55:24.308Z,100106.72
2023-03-17T02:57:51.515Z,100104.09
2023-03-17T03:00:21.475Z,100101.56
2023-03-17T03:02:48.421Z,100098.41
2023-03-17T03:05:16.296Z,100101.97
2023-03-17T03:07:43.320Z,100092.03
2023-03-17T03:10:11.293Z,100095.63
2023-03-17T03:12:38.300Z,100103.50
2023-03-17T03:15:06.937Z,100100.03
2023-03-17T03:17:33.870Z,100103.75
2023-03-17T03:20:01.310Z,100102.22
2023-03-17T03:22:28.228Z,100100.69
2023-03-17T03:24:55.458Z,100090.88
2023-03-17T03:27:22.606Z,100095.31
2023-03-17T03:29:49.887Z,100088.66
2023-03-17T03:32:17.016Z,100087.72
2023-03-17T03:34:44.302Z,100078.16
2023-03-17T03:37:11.561Z,100070.53
2023-03-17T03:39:39.068Z,100066.13
2023-03-17T03:42:07.077Z,100062.09
2023-03-17T03:44:34.394Z,100062.94
2023-03-17T03:47:01.708Z,100078.53
2023-03-17T03:49:29.096Z,100085.47
2023-03-17T03:51:56.193Z,100090.00
2023-03-17T03:54:23.724Z,100098.84
2023-03-17T03:56:50.724Z,100092.19
2023-03-17T03:59:17.942Z,100095.78
2023-03-17T04:01:45.560Z,100089.84
2023-03-17T04:04:12.876Z,100097.44
2023-03-17T04:06:39.909Z,100091.75
2023-03-17T04:09:07.481Z,100086.63
2023-03-17T04:11:34.440Z,100085.81
2023-03-17T04:14:02.027Z,100080.56
2023-03-17T04:16:29.183Z,100075.59
2023-03-17T04:18:56.520Z,100083.03
2023-03-17T04:21:23.472Z,100081.38
2023-03-17T04:23:51.186Z,100079.13
2023-03-17T04:26:18.990Z,100092.66
2023-03-17T04:28:46.504Z,100099.53
2023-03-17T04:31:13.636Z,100105.06
2023-03-17T04:33:41.062Z,100104.22
2023-03-17T04:36:14.967Z,100106.97
2023-03-17T04:38:42.680Z,100109.88
2023-03-17T04:41:09.612Z,100100.34
2023-03-17T04:43:36.952Z,100115.47
2023-03-17T04:46:04.301Z,100121.56
2023-03-17T04:48:32.056Z,100109.44
2023-03-17T04:50:59.226Z,100109.69
2023-03-17T04:53:27.116Z,100116.56
2023-03-17T04:55:54.171Z,100099.75
2023-03-17T04:58:30.405Z,100089.53
2023-03-17T05:00:58.968Z,100084.31
2023-03-17T05:03:28.285Z,100084.16
2023-03-17T05:05:57.708Z,100082.63
2023-03-17T05:08:26.317Z,100085.41
2023-03-17T05:10:53.243Z,100080.16
2023-03-17T05:13:20.806Z,100090.63
2023-03-17T05:15:49.480Z,100087.03
2023-03-17T05:18:18.141Z,100093.38
2023-03-17T05:20:45.435Z,100089.81
2023-03-17T05:23:13.070Z,100106.38
2023-03-17T05:25:41.550Z,100108.00
2023-03-17T05:28:10.036Z,100117.28
2023-03-17T05:30:37.135Z,100110.81
2023-03-17T05:33:05.112Z,100117.44
2023-03-17T05:35:32.311Z,100118.19
2023-03-17T05:37:59.518Z,100122.19
2023-03-17T05:40:26.566Z,100119.03
2023-03-17T05:42:53.784Z,100119.22
2023-03-17T05:45:21.013Z,100124.66
2023-03-17T05:47:48.363Z,100117.91
2023-03-17T05:50:15.595Z,100117.09
2023-03-17T05:52:43.339Z,100117.28
2023-03-17T05:55:10.671Z,100117.44
2023-03-17T05:57:37.948Z,100109.84
2023-03-17T06:00:05.647Z,100114.41
2023-03-17T06:02:33.137Z,100115.53
2023-03-17T06:05:00.237Z,100121.06
2023-03-17T06:07:38.030Z,100128.56
2023-03-17T06:10:16.009Z,100127.75
2023-03-17T06:12:43.271Z,100128.00
2023-03-17T06:15:10.739Z,100129.97
2023-03-17T06:17:38.387Z,100130.81
2023-03-17T06:20:06.382Z,100133.31
2023-03-17T06:22:33.556Z,100131.88
2023-03-17T06:25:01.063Z,100132.72
2023-03-17T06:27:28.393Z,100136.16
2023-03-17T06:29:55.323Z,100134.34
2023-03-17T06:32:22.452Z,100136.13
2023-03-17T06:34:49.562Z,100135.81
2023-03-17T06:37:16.890Z,100126.66
2023-03-17T06:39:45.091Z,100126.19
2023-03-17T06:42:12.636Z,100131.13
2023-03-17T06:44:39.845Z,100132.75
2023-03-17T06:47:07.393Z,100131.41
2023-03-17T06:49:34.446Z,100134.09
2023-03-17T06:52:02.357Z,100126.34
2023-03-17T06:54:29.714Z,100132.94
2023-03-17T06:56:57.119Z,100130.59
2023-03-17T06:59:24.903Z,100125.16
2023-03-17T07:01:52.222Z,100118.38
2023-03-17T07:04:19.710Z,100124.88
2023-03-17T07:06:46.908Z,100115.97
2023-03-17T07:09:15.424Z,100121.31
2023-03-17T07:11:42.833Z,100112.88
2023-03-17T07:14:09.869Z,100118.56
2023-03-17T07:16:37.580Z,100113.31
2023-03-17T07:19:04.893Z,100110.91
2023-03-17T07:21:32.103Z,100113.44
2023-03-17T07:23:59.096Z,100115.13
2023-03-17T07:26:26.420Z,100108.84
2023-03-17T07:28:53.444Z,100114.16
2023-03-17T07:31:20.693Z,100103.25
2023-03-17T07:33:47.741Z,100111.19
2023-03-17T07:36:15.691Z,100107.53
2023-03-17T07:38:43.706Z,100113.81
2023-03-17T07:41:10.934Z,100116.59
2023-03-17T07:43:38.384Z,100101.16
2023-03-17T07:46:06.532Z,100096.69
2023-03-17T07:48:34.530Z,100100.44
2023-03-17T07:51:02.050Z,100098.13
2023-03-17T07:53:29.691Z,100101.34
2023-03-17T07:55:57.184Z,100105.47
2023-03-17T07:58:24.161Z,100096.03
2023-03-17T08:00:51.734Z,100099.50
2023-03-17T08:03:19.386Z,100101.09
2023-03-17T08:05:55.273Z,100102.53
2023-03-17T08:08:24.369Z,100098.16
2023-03-17T08:10:52.110Z,100095.22
2023-03-17T08:13:19.788Z,100093.25
2023-03-17T08:15:47.066Z,100077.69
2023-03-17T08:18:14.306Z,100068.38
2023-03-17T08:20:42.245Z,100083.84
2023-03-17T08:23:09.314Z,100067.44
2023-03-17T08:25:37.001Z,100070.88
2023-03-17T08:28:04.537Z,100078.19
2023-03-17T08:30:33.763Z,100072.19
2023-03-17T08:33:00.935Z,100072.69
2023-03-17T08:35:28.470Z,100078.41
2023-03-17T08:37:56.272Z,100074.50
2023-03-17T08:40:23.714Z,100074.72
2023-03-17T08:42:51.117Z,100071.53
2023-03-17T08:45:18.892Z,100083.94
2023-03-17T08:47:47.666Z,100066.34
2023-03-17T08:50:23.060Z,100069.69
2023-03-17T08:52:52.165Z,100067.06
2023-03-17T08:55:19.989Z,100071.19
2023-03-17T08:57:47.197Z,100062.69
2023-03-17T09:00:20.249Z,100064.13
2023-03-17T09:02:48.673Z,100066.03
2023-03-17T09:05:17.817Z,100064.00
2023-03-17T09:07:45.287Z,100059.91
2023-03-17T09:10:14.749Z,100046.94
2023-03-17T09:12:42.740Z,100046.34
2023-03-17T09:15:12.242Z,100049.22
2023-03-17T09:17:39.641Z,100039.50
2023-03-17T09:20:07.708Z,100037.25
2023-03-17T09:22:34.695Z,100038.03
2023-03-17T09:25:02.096Z,100027.50
2023-03-17T09:27:29.169Z,100032.91
2023-03-17T09:29:56.375Z,100033.22
2023-03-17T09:32:23.435Z,100028.22
2023-03-17T09:34:51.691Z,100026.53
2023-03-17T09:37:18.711Z,100023.00
2023-03-17T09:39:46.305Z,100016.44
2023-03-17T09:42:49.569Z,100010.38
2023-03-17T09:45:36.585Z,99996.75
2023-03-17T09:48:44.396Z,99990.38
2023-03-17T09:51:18.447Z,99982.72
2023-03-17T09:54:02.408Z,99980.47
2023-03-17T09:56:34.205Z,99978.91
2023-03-17T09:59:22.508Z,99973.41
2023-03-17T10:01:50.636Z,99967.03
2023-03-17T10:04:19.016Z,99967.81
2023-03-17T10:06:47.983Z,99967.81
2023-03-17T10:09:41.880Z,99960.75
2023-03-17T10:12:30.712Z,99958.28
2023-03-17T10:15:01.548Z,99944.97
2023-03-17T10:17:36.608Z,99947.53
2023-03-17T10:20:16.103Z,99934.69
2023-03-17T10:22:49.203Z,99938.69
2023-03-17T10:25:22.355Z,99938.44
2023-03-17T10:28:23.093Z,99935.19
2023-03-17T10:30:50.409Z,99932.69
2023-03-17T10:33:17.779Z,99929.78
2023-03-17T10:35:45.294Z,99925.00
2023-03-17T10:38:23.339Z,99926.16
2023-03-17T10:41:06.104Z,99916.16
2023-03-17T10:43:50.811Z,99910.84
2023-03-17T10:46:25.662Z,99914.38
2023-03-17T10:49:16.901Z,99911.88
2023-03-17T10:51:47.052Z,99915.84
2023-03-17T10:54:21.012Z,99906.59
2023-03-17T10:56:56.871Z,99901.22
2023-03-17T10:59:32.997Z,99894.34
2023-03-17T11:02:13.427Z,99884.66
2023-03-17T11:04:43.531Z,99887.59
2023-03-17T11:07:20.272Z,99889.03
2023-03-17T11:09:52.489Z,99880.38
2023-03-17T11:12:39.351Z,99875.44
2023-03-17T11:15:18.289Z,99887.25
2023-03-17T11:18:07.643Z,99873.88
2023-03-17T11:20:56.676Z,99875.69
2023-03-17T11:23:51.979Z,99880.47
2023-03-17T11:26:40.473Z,99882.28
2023-03-17T11:29:30.086Z,99872.31
2023-03-17T11:32:16.138Z,99879.03
2023-03-17T11:35:34.181Z,99865.94
2023-03-17T11:38:36.200Z,99863.63
2023-03-17T11:41:21.014Z,99849.63
2023-03-17T11:44:14.071Z,99843.66
2023-03-17T11:46:52.149Z,99834.59
2023-03-17T11:49:45.130Z,99820.00
2023-03-17T11:52:28.573Z,99823.25
2023-03-17T11:55:24.975Z,99822.03
2023-03-17T11:58:00.436Z,99825.22
2023-03-17T12:00:36.552Z,99804.28
2023-03-17T12:03:53.119Z,99795.31
2023-03-17T12:06:32.005Z,99769.50
2023-03-17T12:09:08.554Z,99772.31
2023-03-17T12:11:44.594Z,99778.78
2023-03-17T12:14:32.494Z,99775.44
2023-03-17T12:17:34.273Z,99786.44
2023-03-17T12:20:25.850Z,99774.88
2023-03-17T12:23:10.219Z,99776.81
2023-03-17T12:25:57.775Z,99776.00
2023-03-17T12:28:32.899Z,99779.63
2023-03-17T12:31:12.781Z,99776.44
2023-03-17T12:34:20.860Z,99766.81
2023-03-17T12:36:49.265Z,99770.16
2023-03-17T12:39:27.157Z,99753.97
2023-03-17T12:42:27.091Z,99762.44
2023-03-17T12:45:25.077Z,99762.78
2023-03-17T12:48:43.668Z,99754.78
2023-03-17T12:51:29.897Z,99753.59
2023-03-17T12:53:59.478Z,99741.22
2023-03-17T12:56:36.748Z,99741.50
2023-03-17T12:59:16.754Z,99735.94
2023-03-17T13:02:17.604Z,99733.31
2023-03-17T13:05:01.020Z,99727.25
2023-03-17T13:07:52.928Z,99723.81
2023-03-17T13:10:44.760Z,99725.00
2023-03-17T13:13:36.412Z,99721.69
2023-03-17T13:16:06.326Z,99721.94
2023-03-17T13:18:36.630Z,99712.31
2023-03-17T13:21:04.080Z,99709.06
2023-03-17T13:23:56.521Z,99711.09
2023-03-17T13:26:59.332Z,99707.75
2023-03-17T13:29:32.803Z,99703.69
2023-03-17T13:32:19.905Z,99703.91
2023-03-17T13:35:42.667Z,99708.00
2023-03-17T13:38:35.144Z,99711.97
2023-03-17T13:41:24.507Z,99709.66
2023-03-17T13:44:32.436Z,99698.72
2023-03-17T13:47:22.863Z,99701.88
2023-03-17T13:49:59.280Z,99705.34
2023-03-17T13:52:37.876Z,99699.00
2023-03-17T13:55:24.818Z,99699.97
2023-03-17T13:58:22.456Z,99687.28
2023-03-17T14:01:00.226Z,99680.06
2023-03-17T14:03:42.540Z,99677.59
2023-03-17T14:06:14.234Z,99675.88
2023-03-17T14:09:27.974Z,99665.63
2023-03-17T14:11:59.611Z,99663.31
2023-03-17T14:14:51.043Z,99660.91
2023-03-17T14:17:41.459Z,99661.53
2023-03-17T14:20:18.490Z,99658.63
2023-03-17T14:22:53.373Z,99648.41
2023-03-17T14:25:24.858Z,99651.97
2023-03-17T14:27:56.879Z,99649.91
2023-03-17T14:30:31.648Z,99646.38
2023-03-17T14:33:11.960Z,99652.28
2023-03-17T14:35:43.204Z,99648.00
2023-03-17T14:38:23.049Z,99649.63
2023-03-17T14:41:06.556Z,99652.91
2023-03-17T14:43:36.172Z,99649.63
2023-03-17T14:46:14.625Z,99650.88
2023-03-17T14:48:47.887Z,99649.47
2023-03-17T14:51:36.537Z,99644.19
2023-03-17T14:54:14.353Z,99639.38
2023-03-17T14:56:48.060Z,99640.59
2023-03-17T14:59:26.780Z,99638.19
2023-03-17T15:02:01.680Z,99632.47
2023-03-17T15:04:34.176Z,99632.84
2023-03-17T15:07:06.633Z,99629.56
2023-03-17T15:09:33.648Z,99630.72
2023-03-17T15:12:23.700Z,99630.03
2023-03-17T15:14:54.560Z,99629.34
2023-03-17T15:17:29.255Z,99624.00
2023-03-17T15:20:01.912Z,99626.34
2023-03-17T15:22:35.195Z,99620.63
2023-03-17T15:25:18.038Z,99612.59
2023-03-17T15:27:47.036Z,99618.31
2023-03-17T15:30:15.428Z,99608.88
2023-03-17T15:32:43.169Z,99609.56
2023-03-17T15:35:14.276Z,99609.56
2023-03-17T15:37:42.924Z,99602.44
2023-03-17T15:40:11.027Z,99606.72
2023-03-17T15:42:39.713Z,99603.78
2023-03-17T15:45:07.773Z,99596.94
2023-03-17T15:47:39.807Z,99597.66
2023-03-17T15:50:29.109Z,99598.97
2023-03-17T15:52:57.079Z,99596.22
2023-03-17T15:55:30.547Z,99591.81
2023-03-17T15:57:59.133Z,99594.63
2023-03-17T16:00:29.865Z,99593.59
2023-03-17T16:03:04.153Z,99595.78
2023-03-17T16:05:35.908Z,99599.47
2023-03-17T16:08:03.186Z,99594.38
2023-03-17T16:10:33.159Z,99585.44
2023-03-17T16:13:00.707Z,99591.25
2023-03-17T16:15:37.191Z,99578.28
2023-03-17T16:18:10.204Z,99581.09
2023-03-17T16:20:44.533Z,99594.44
2023-03-17T16:23:18.517Z,99589.81
2023-03-17T16:25:46.765Z,99599.25
2023-03-17T16:28:29.912Z,99591.81
2023-03-17T16:30:59.194Z,99585.28
2023-03-17T16:33:40.384Z,99596.16
2023-03-17T16:36:13.145Z,99593.84
2023-03-17T16:38:40.866Z,99595.84
2023-03-17T16:41:16.981Z,99597.19
2023-03-17T16:43:50.970Z,99596.13
2023-03-17T16:46:20.609Z,99604.47
2023-03-17T16:48:50.070Z,99607.72
2023-03-17T16:51:17.828Z,99609.81
2023-03-17T16:53:46.167Z,99604.91
2023-03-17T16:56:19.210Z,99602.97
2023-03-17T16:58:47.740Z,99597.31
2023-03-17T17:01:25.701Z,99588.75
2023-03-17T17:03:54.032Z,99597.91
2023-03-17T17:06:23.668Z,99600.28
2023-03-17T17:08:51.849Z,99598.09
2023-03-17T17:11:20.317Z,99599.00
2023-03-17T17:13:49.260Z,99609.50
2023-03-17T17:16:27.404Z,99608.13
2023-03-17T17:18:55.572Z,99606.31
2023-03-17T17:21:22.744Z,99598.75
2023-03-17T17:23:52.676Z,99604.50
2023-03-17T17:26:21.115Z,99610.97
2023-03-17T17:28:48.857Z,99612.66
2023-03-17T17:31:16.021Z,99617.03
2023-03-17T17:33:43.322Z,99621.31
2023-03-17T17:36:16.939Z,99616.84
2023-03-17T17:38:44.951Z,99617.91
2023-03-17T17:41:13.043Z,99627.16
2023-03-17T17:43:40.998Z,99629.84
2023-03-17T17:46:16.044Z,99627.63
2023-03-17T17:48:43.878Z,99629.88
2023-03-17T17:51:10.847Z,99629.03
2023-03-17T17:53:38.087Z,99631.91
2023-03-17T17:56:05.630Z,99627.22
2023-03-17T17:58:32.916Z,99633.59
2023-03-17T18:01:00.342Z,99632.81
2023-03-17T18:03:28.108Z,99638.97
2023-03-17T18:05:58.087Z,99640.22
2023-03-17T18:08:25.888Z,99636.94
2023-03-17T18:10:52.957Z,99630.44
2023-03-17T18:13:20.453Z,99641.31
2023-03-17T18:15:47.366Z,99633.50
2023-03-17T18:18:15.333Z,99643.16
2023-03-17T18:20:42.304Z,99639.06
2023-03-17T18:23:09.545Z,99642.34
2023-03-17T18:25:37.251Z,99638.25
2023-03-17T18:28:04.976Z,99648.50
2023-03-17T18:30:34.791Z,99647.66
2023-03-17T18:33:19.662Z,99645.44
2023-03-17T18:35:50.798Z,99645.44
2023-03-17T18:38:18.429Z,99644.41
2023-03-17T18:40:45.874Z,99650.78
2023-03-17T18:43:13.416Z,99644.00
2023-03-17T18:45:40.427Z,99641.94
2023-03-17T18:48:07.688Z,99640.72
2023-03-17T18:50:34.661Z,99643.56
2023-03-17T18:53:02.336Z,99635.34
2023-03-17T18:55:29.312Z,99636.59
2023-03-17T18:57:56.749Z,99630.75
2023-03-17T19:00:25.893Z,99640.56
2023-03-17T19:02:53.684Z,99637.28
2023-03-17T19:05:21.161Z,99633.56
2023-03-17T19:07:48.887Z,99635.63
2023-03-17T19:10:16.659Z,99628.66
2023-03-17T19:12:47.159Z,99629.06
2023-03-17T19:15:15.172Z,99625.16
2023-03-17T19:17:43.436Z,99627.81
2023-03-17T19:20:12.360Z,99625.16
2023-03-17T19:22:40.290Z,99622.03
2023-03-17T19:25:09.049Z,99618.31
2023-03-17T19:27:36.363Z,99620.75
2023-03-17T19:30:03.920Z,99615.19
2023-03-17T19:32:31.109Z,99610.09
2023-03-17T19:34:58.542Z,99611.28
2023-03-17T19:37:26.392Z,99612.91
2023-03-17T19:39:53.546Z,99604.66
2023-03-17T19:42:21.046Z,99612.41
2023-03-17T19:44:47.984Z,99613.63
2023-03-17T19:47:15.447Z,99614.22
2023-03-17T19:49:42.424Z,99612.31
2023-03-17T19:52:10.473Z,99613.50
2023-03-17T19:54:41.653Z,99604.53
2023-03-17T19:57:08.846Z,99607.81
2023-03-17T19:59:35.861Z,99609.84
2023-03-17T20:02:03.177Z,99608.81
2023-03-17T20:04:31.029Z,99608.81
2023-03-17T20:06:58.884Z,99609.84
2023-03-17T20:09:27.149Z,99615.16
2023-03-17T20:11:56.453Z,99611.84
2023-03-17T20:14:24.302Z,99603.25
2023-03-17T20:16:51.959Z,99609.97
2023-03-17T20:19:19.361Z,99609.75
2023-03-17T20:21:46.679Z,99607.47
2023-03-17T20:24:14.745Z,99609.88
2023-03-17T20:26:43.279Z,99604.78
2023-03-17T20:29:14.173Z,99599.00
2023-03-17T20:31:42.674Z,99603.09
2023-03-17T20:34:10.647Z,99598.16
2023-03-17T20:36:42.137Z,99597.72
2023-03-17T20:39:13.259Z,99597.28
2023-03-17T20:41:41.884Z,99603.34
2023-03-17T20:44:09.130Z,99595.97
2023-03-17T20:46:36.578Z,99600.03
2023-03-17T20:49:05.508Z,99601.59
2023-03-17T20:51:33.936Z,99595.88
2023-03-17T20:54:04.506Z,99603.16
2023-03-17T20:56:34.002Z,99609.06
2023-03-17T20:59:04.834Z,99610.47
2023-03-17T21:01:36.233Z,99598.59
2023-03-17T21:04:09.775Z,99600.59
2023-03-17T21:06:38.383Z,99609.75
2023-03-17T21:09:05.964Z,99608.28
2023-03-17T21:11:33.833Z,99610.31
2023-03-17T21:14:03.612Z,99601.09
2023-03-17T21:16:31.062Z,99604.13
2023-03-17T21:18:58.822Z,99599.19
2023-03-17T21:21:27.277Z,99597.13
2023-03-17T21:23:55.487Z,99605.28
2023-03-17T21:26:23.010Z,99605.84
2023-03-17T21:28:50.414Z,99600.72
2023-03-17T21:31:18.201Z,99609.88
2023-03-17T21:33:48.321Z,99609.22
2023-03-17T21:36:16.428Z,99607.16
2023-03-17T21:38:43.628Z,99612.16
2023-03-17T21:41:23.672Z,99616.19
2023-03-17T21:43:50.796Z,99608.63
2023-03-17T21:46:18.217Z,99603.03
2023-03-17T21:48:45.256Z,99601.78
2023-03-17T21:51:12.884Z,99600.69
2023-03-17T21:53:39.887Z,99601.88
2023-03-17T21:56:08.321Z,99603.91
2023-03-17T21:58:35.647Z,99613.03
2023-03-17T22:01:02.963Z,99614.41
2023-03-17T22:03:30.204Z,99608.66
2023-03-17T22:05:58.629Z,99619.63
2023-03-17T22:08:26.273Z,99611.03
2023-03-17T22:10:53.524Z,99616.72
2023-03-17T22:13:20.608Z,99616.28
2023-03-17T22:15:48.552Z,99621.09
2023-03-17T22:18:15.789Z,99618.66
2023-03-17T22:20:44.717Z,99614.91
2023-03-17T22:23:12.828Z,99614.91
2023-03-17T22:25:40.128Z,99614.63
2023-03-17T22:28:07.093Z,99610.69
2023-03-17T22:30:38.582Z,99618.38
2023-03-17T22:33:07.495Z,99609.75
2023-03-17T22:35:36.277Z,99608.50
2023-03-17T22:38:04.431Z,99611.69
2023-03-17T22:40:32.235Z,99610.84
2023-03-17T22:42:59.407Z,99613.06
2023-03-17T22:45:27.261Z,99615.25
2023-03-17T22:47:55.381Z,99617.59
2023-03-17T22:50:25.174Z,99620.06
2023-03-17T22:52:52.527Z,99612.31
2023-03-17T22:55:19.784Z,99612.66
2023-03-17T22:57:47.187Z,99617.88
2023-03-17T23:00:17.010Z,99608.47
2023-03-17T23:02:46.437Z,99609.84
2023-03-17T23:05:14.482Z,99611.00
2023-03-17T23:07:50.273Z,99610.00
2023-03-17T23:10:25.232Z,99607.19
2023-03-17T23:12:52.430Z,99615.19
2023-03-17T23:15:20.950Z,99609.91
2023-03-17T23:17:48.171Z,99612.25
2023-03-17T23:20:16.050Z,99615.09
2023-03-17T23:22:43.373Z,99615.44
2023-03-17T23:25:13.497Z,99614.97
2023-03-17T23:27:41.321Z,99604.72
2023-03-17T23:30:11.787Z,99606.28
2023-03-17T23:32:40.715Z,99604.44
2023-03-17T23:35:10.054Z,99593.22
2023-03-17T23:37:37.298Z,99593.59
2023-03-17T23:40:09.536Z,99595.22
2023-03-17T23:42:36.968Z,99598.88
2023-03-17T23:45:05.517Z,99598.06
2023-03-17T23:47:32.834Z,99603.88
2023-03-17T23:50:00.136Z,99597.94
2023-03-17T23:52:27.112Z,99589.84
2023-03-17T23:54:54.565Z,99588.16
2023-03-17T23:57:21.687Z,99585.72
2023-03-17T23:59:48.866Z,99581.41
